createdAt,value
2023-03-22T00:00:35.391Z,538.00
2023-03-22T00:04:35.370Z,539.00
2023-03-22T00:08:35.392Z,540.00
2023-03-22T00:12:35.401Z,534.00
2023-03-22T00:16:35.411Z,533.00
2023-03-22T00:20:35.360Z,528.00
2023-03-22T00:24:35.334Z,526.00
2023-03-22T00:28:35.386Z,530.00
2023-03-22T00:32:35.359Z,532.00
2023-03-22T00:36:35.340Z,532.00
2023-03-22T00:40:35.346Z,533.00
2023-03-22T00:44:35.339Z,537.00
2023-03-22T00:48:35.354Z,535.00
2023-03-22T00:52:35.356Z,535.00
2023-03-22T00:56:35.346Z,535.00
2023-03-22T01:00:35.346Z,534.00
2023-03-22T01:04:35.388Z,535.00
2023-03-22T01:08:35.447Z,537.00
2023-03-22T01:12:35.360Z,538.00
2023-03-22T01:16:35.394Z,538.00
2023-03-22T01:20:35.368Z,544.00
2023-03-22T01:24:35.391Z,540.00
2023-03-22T01:28:35.383Z,540.00
2023-03-22T01:32:35.413Z,540.00
2023-03-22T01:36:35.395Z,538.00
2023-03-22T01:40:35.425Z,535.00
2023-03-22T01:44:35.394Z,543.00
2023-03-22T01:48:35.436Z,541.00
2023-03-22T01:52:35.488Z,538.00
2023-03-22T01:56:35.463Z,542.00
2023-03-22T02:00:35.476Z,538.00
2023-03-22T02:04:35.522Z,539.00
2023-03-22T02:08:35.532Z,537.00
2023-03-22T02:12:35.508Z,539.00
2023-03-22T02:16:35.506Z,539.00
2023-03-22T02:20:35.483Z,536.00
2023-03-22T02:24:35.476Z,536.00
2023-03-22T02:28:35.508Z,538.00
2023-03-22T02:32:35.462Z,541.00
2023-03-22T02:36:35.486Z,537.00
2023-03-22T02:40:35.474Z,545.00
2023-03-22T02:44:35.480Z,543.00
2023-03-22T02:48:35.455Z,543.00
2023-03-22T02:52:35.480Z,542.00
2023-03-22T02:56:35.492Z,541.00
2023-03-22T03:00:35.508Z,543.00
2023-03-22T03:04:35.541Z,539.00
2023-03-22T03:08:35.530Z,546.00
2023-03-22T03:12:35.555Z,539.00
2023-03-22T03:16:35.719Z,542.00
2023-03-22T03:20:35.560Z,541.00
2023-03-22T03:24:35.595Z,549.00
2023-03-22T03:28:35.586Z,544.00
2023-03-22T03:32:35.587Z,542.00
2023-03-22T03:36:35.603Z,543.00
2023-03-22T03:40:35.636Z,537.00
2023-03-22T03:44:35.621Z,539.00
2023-03-22T03:48:35.634Z,541.00
2023-03-22T03:52:35.669Z,539.00
2023-03-22T03:56:35.678Z,544.00
2023-03-22T04:00:35.694Z,545.00
2023-03-22T04:04:35.759Z,547.00
2023-03-22T04:08:35.705Z,549.00
2023-03-22T04:12:35.727Z,552.00
2023-03-22T04:16:35.696Z,543.00
2023-03-22T04:20:35.760Z,539.00
2023-03-22T04:24:35.684Z,540.00
2023-03-22T04:28:35.660Z,543.00
2023-03-22T04:32:35.673Z,542.00
2023-03-22T04:36:35.663Z,539.00
2023-03-22T04:40:35.666Z,545.00
2023-03-22T04:44:35.680Z,546.00
2023-03-22T04:48:35.728Z,545.00
2023-03-22T04:52:35.756Z,541.00
2023-03-22T04:56:35.776Z,538.00
2023-03-22T05:00:35.791Z,542.00
2023-03-22T05:04:35.840Z,540.00
2023-03-22T05:08:35.885Z,540.00
2023-03-22T05:12:35.918Z,544.00
2023-03-22T05:16:35.965Z,545.00
2023-03-22T05:20:36.012Z,542.00
2023-03-22T05:24:36.052Z,545.00
2023-03-22T05:28:36.071Z,546.00
2023-03-22T05:32:36.129Z,551.00
2023-03-22T05:36:36.161Z,556.00
2023-03-22T05:40:36.216Z,553.00
2023-03-22T05:44:36.237Z,552.00
2023-03-22T05:48:36.299Z,559.00
2023-03-22T05:52:36.323Z,554.00
2023-03-22T05:56:36.393Z,548.00
2023-03-22T06:00:36.334Z,551.00
2023-03-22T06:04:36.357Z,549.00
2023-03-22T06:08:36.522Z,548.00
2023-03-22T06:12:36.471Z,548.00
2023-03-22T06:16:36.450Z,548.00
2023-03-22T06:20:36.401Z,552.00
2023-03-22T06:24:36.389Z,551.00
2023-03-22T06:28:36.342Z,585.00
2023-03-22T06:32:36.357Z,657.00
2023-03-22T06:36:36.245Z,707.00
2023-03-22T06:40:36.278Z,729.00
2023-03-22T06:44:36.271Z,686.00
2023-03-22T06:48:36.185Z,654.00
2023-03-22T06:52:36.106Z,642.00
2023-03-22T06:56:36.078Z,661.00
2023-03-22T07:00:36.213Z,644.00
2023-03-22T07:04:36.504Z,641.00
2023-03-22T07:08:36.649Z,683.00
2023-03-22T07:12:36.791Z,715.00
2023-03-22T07:16:36.863Z,738.00
2023-03-22T07:20:37.039Z,732.00
2023-03-22T07:24:44.575Z,731.00
2023-03-22T07:28:37.943Z,759.00
2023-03-22T07:32:36.975Z,763.00
2023-03-22T07:36:37.101Z,754.00
2023-03-22T07:40:37.458Z,806.00
2023-03-22T07:44:37.345Z,891.00
2023-03-22T07:48:37.429Z,867.00
2023-03-22T07:52:37.680Z,860.00
2023-03-22T07:56:37.608Z,762.00
2023-03-22T08:00:38.123Z,807.00
2023-03-22T08:04:37.552Z,871.00
2023-03-22T08:08:37.499Z,884.00
2023-03-22T08:12:37.472Z,887.00
2023-03-22T08:16:37.539Z,885.00
2023-03-22T08:20:37.705Z,895.00
2023-03-22T08:24:37.379Z,865.00
2023-03-22T08:28:37.542Z,815.00
2023-03-22T08:32:37.844Z,858.00
2023-03-22T08:36:37.352Z,757.00
2023-03-22T08:40:37.878Z,748.00
2023-03-22T08:44:37.367Z,658.00
2023-03-22T08:48:37.503Z,698.00
2023-03-22T08:52:37.605Z,700.00
2023-03-22T08:56:37.745Z,689.00
2023-03-22T09:00:48.191Z,674.00
2023-03-22T09:04:38.878Z,646.00
2023-03-22T09:08:37.831Z,663.00
2023-03-22T09:12:38.441Z,657.00
2023-03-22T09:16:38.463Z,602.00
2023-03-22T09:20:38.565Z,568.00
2023-03-22T09:24:38.330Z,587.00
2023-03-22T09:28:38.582Z,609.00
2023-03-22T09:32:38.617Z,591.00
2023-03-22T09:36:38.812Z,575.00
2023-03-22T09:40:39.361Z,572.00
2023-03-22T09:44:39.196Z,625.00
2023-03-22T09:48:39.853Z,628.00
2023-03-22T09:52:39.557Z,630.00
2023-03-22T09:56:39.893Z,652.00
2023-03-22T10:00:39.836Z,661.00
2023-03-22T10:04:39.878Z,675.00
2023-03-22T10:08:39.789Z,652.00
2023-03-22T10:12:39.793Z,638.00
2023-03-22T10:16:39.799Z,658.00
2023-03-22T10:20:39.787Z,678.00
2023-03-22T10:24:40.877Z,685.00
2023-03-22T10:28:40.056Z,791.00
2023-03-22T10:32:54.760Z,817.00
2023-03-22T10:36:41.037Z,805.00
2023-03-22T10:40:39.941Z,764.00
2023-03-22T10:44:40.375Z,752.00
2023-03-22T10:48:40.017Z,754.00
2023-03-22T10:52:40.189Z,720.00
2023-03-22T10:56:40.474Z,738.00
2023-03-22T11:00:42.332Z,781.00
2023-03-22T11:04:40.341Z,782.00
2023-03-22T11:08:40.301Z,781.00
2023-03-22T11:12:40.429Z,748.00
2023-03-22T11:16:40.238Z,770.00
2023-03-22T11:20:40.643Z,836.00
2023-03-22T11:24:40.149Z,781.00
2023-03-22T11:28:40.152Z,810.00
2023-03-22T11:32:40.158Z,809.00
2023-03-22T11:36:40.042Z,799.00
2023-03-22T11:40:40.334Z,778.00
2023-03-22T11:44:39.983Z,766.00
2023-03-22T11:48:40.027Z,745.00
2023-03-22T11:52:39.937Z,728.00
2023-03-22T11:56:39.863Z,706.00
2023-03-22T12:00:39.831Z,698.00
2023-03-22T12:04:39.878Z,677.00
2023-03-22T12:08:39.910Z,649.00
2023-03-22T12:12:39.740Z,635.00
2023-03-22T12:16:39.970Z,620.00
2023-03-22T12:20:40.131Z,619.00
2023-03-22T12:24:40.798Z,618.00
2023-03-22T12:28:39.778Z,617.00
2023-03-22T12:32:39.817Z,605.00
2023-03-22T12:36:39.880Z,578.00
2023-03-22T12:40:40.363Z,552.00
2023-03-22T12:44:40.070Z,556.00
2023-03-22T12:48:40.240Z,553.00
2023-03-22T12:52:45.733Z,553.00
2023-03-22T12:56:41.224Z,550.00
2023-03-22T13:00:40.437Z,555.00
2023-03-22T13:04:40.194Z,552.00
2023-03-22T13:08:40.510Z,555.00
2023-03-22T13:12:40.454Z,561.00
2023-03-22T13:16:40.469Z,559.00
2023-03-22T13:20:40.821Z,557.00
2023-03-22T13:24:40.425Z,559.00
2023-03-22T13:28:40.542Z,558.00
2023-03-22T13:32:40.652Z,557.00
2023-03-22T13:36:40.748Z,557.00
2023-03-22T13:40:40.983Z,553.00
2023-03-22T13:44:40.949Z,551.00
2023-03-22T13:48:41.155Z,549.00
2023-03-22T13:52:41.149Z,549.00
2023-03-22T13:56:41.277Z,547.00
2023-03-22T14:00:41.620Z,549.00
2023-03-22T14:04:41.441Z,546.00
2023-03-22T14:08:41.539Z,545.00
2023-03-22T14:12:41.636Z,542.00
2023-03-22T14:16:41.757Z,546.00
2023-03-22T14:20:41.941Z,549.00
2023-03-22T14:49:43.435Z,537.00
2023-03-22T14:53:43.699Z,532.00
2023-03-22T14:57:43.696Z,539.00
2023-03-22T15:01:43.352Z,540.00
2023-03-22T15:05:43.675Z,532.00
2023-03-22T15:09:43.282Z,533.00
2023-03-22T15:13:43.213Z,534.00
2023-03-22T15:17:43.232Z,535.00
2023-03-22T15:21:43.156Z,534.00
2023-03-22T15:25:43.145Z,533.00
2023-03-22T15:29:43.105Z,533.00
2023-03-22T15:33:43.055Z,532.00
2023-03-22T15:37:43.010Z,529.00
2023-03-22T15:41:43.421Z,535.00
2023-03-22T15:45:43.365Z,531.00
2023-03-22T15:49:43.364Z,538.00
2023-03-22T15:53:43.553Z,540.00
2023-03-22T15:57:43.714Z,539.00
2023-03-22T16:01:43.879Z,535.00
2023-03-22T16:05:44.091Z,542.00
2023-03-22T16:09:44.254Z,541.00
2023-03-22T16:13:44.474Z,542.00
2023-03-22T16:17:44.634Z,542.00
2023-03-22T16:21:44.833Z,546.00
2023-03-22T16:25:45.234Z,545.00
2023-03-22T16:29:45.203Z,545.00
2023-03-22T16:33:45.377Z,547.00
2023-03-22T16:37:45.531Z,544.00
2023-03-22T16:41:45.681Z,546.00
2023-03-22T16:45:45.879Z,541.00
2023-03-22T16:49:46.001Z,537.00
2023-03-22T16:53:46.147Z,538.00
2023-03-22T16:57:46.319Z,533.00
2023-03-22T17:01:46.543Z,538.00
2023-03-22T17:05:46.663Z,537.00
2023-03-22T17:09:46.817Z,537.00
2023-03-22T17:13:47.034Z,542.00
2023-03-22T17:17:47.378Z,537.00
2023-03-22T17:21:47.321Z,544.00
2023-03-22T17:25:47.496Z,539.00
2023-03-22T17:29:47.664Z,539.00
2023-03-22T17:33:47.893Z,540.00
2023-03-22T17:37:49.337Z,543.00
2023-03-22T17:41:48.320Z,540.00
2023-03-22T17:46:29.236Z,533.00
2023-03-22T17:49:49.444Z,534.00
2023-03-22T17:54:30.792Z,540.00
2023-03-22T18:01:48.387Z,538.00
2023-03-22T18:05:48.321Z,541.00
2023-03-22T18:09:48.305Z,542.00
2023-03-22T18:13:52.172Z,543.00
2023-03-22T18:17:49.220Z,539.00
2023-03-22T18:21:48.169Z,534.00
2023-03-22T18:25:48.153Z,535.00
2023-03-22T18:29:48.144Z,531.00
2023-03-22T18:33:48.066Z,534.00
2023-03-22T18:41:49.129Z,536.00
2023-03-22T18:45:56.930Z,538.00
2023-03-22T18:49:48.932Z,540.00
2023-03-22T18:53:47.930Z,541.00
2023-03-22T18:57:47.891Z,539.00
2023-03-22T19:01:52.492Z,535.00
2023-03-22T19:05:49.262Z,535.00
2023-03-22T19:09:48.233Z,530.00
2023-03-22T19:14:35.039Z,536.00
2023-03-22T19:17:48.974Z,534.00
2023-03-22T19:21:48.239Z,532.00
2023-03-22T19:25:48.238Z,529.00
2023-03-22T19:29:48.267Z,531.00
2023-03-22T19:33:55.841Z,530.00
2023-03-22T19:37:49.248Z,531.00
2023-03-22T19:42:03.554Z,526.00
2023-03-22T19:45:49.249Z,525.00
2023-03-22T19:49:47.939Z,524.00
2023-03-22T19:54:22.382Z,527.00
2023-03-22T19:57:48.864Z,530.00
2023-03-22T20:01:47.890Z,534.00
2023-03-22T20:05:50.873Z,526.00
2023-03-22T20:09:47.804Z,523.00
2023-03-22T20:13:47.757Z,524.00
2023-03-22T20:17:47.745Z,526.00
2023-03-22T20:21:47.697Z,527.00
2023-03-22T20:25:47.661Z,526.00
2023-03-22T20:29:47.629Z,527.00
2023-03-22T20:33:47.591Z,526.00
2023-03-22T20:37:47.552Z,526.00
2023-03-22T20:41:47.730Z,525.00
2023-03-22T20:45:48.016Z,527.00
2023-03-22T20:49:47.912Z,527.00
2023-03-22T20:53:47.891Z,530.00
2023-03-22T20:57:47.838Z,527.00
2023-03-22T21:01:47.840Z,531.00
2023-03-22T21:05:47.788Z,531.00
2023-03-22T21:09:47.748Z,527.00
2023-03-22T21:13:47.706Z,528.00
2023-03-22T21:17:47.858Z,530.00
2023-03-22T21:21:49.572Z,528.00
2023-03-22T21:25:47.609Z,530.00
2023-03-22T21:29:47.581Z,529.00
2023-03-22T21:33:47.548Z,528.00
2023-03-22T21:37:47.517Z,526.00
2023-03-22T21:41:47.481Z,525.00
2023-03-22T21:45:47.528Z,531.00
2023-03-22T21:49:47.428Z,529.00
2023-03-22T21:53:47.371Z,534.00
2023-03-22T21:57:47.352Z,533.00
2023-03-22T22:01:47.387Z,534.00
2023-03-22T22:05:47.503Z,532.00
2023-03-22T22:09:47.596Z,531.00
2023-03-22T22:13:47.747Z,531.00
2023-03-22T22:17:47.885Z,528.00
2023-03-22T22:21:48.025Z,534.00
2023-03-22T22:25:48.156Z,535.00
2023-03-22T22:29:48.265Z,531.00
2023-03-22T22:33:48.338Z,534.00
2023-03-22T22:37:48.464Z,533.00
2023-03-22T22:41:48.612Z,526.00
2023-03-22T22:45:48.835Z,522.00
2023-03-22T22:49:48.955Z,522.00
2023-03-22T22:53:49.148Z,526.00
2023-03-22T22:57:49.276Z,527.00
2023-03-22T23:01:49.347Z,527.00
2023-03-22T23:05:49.433Z,525.00
2023-03-22T23:09:49.501Z,521.00
2023-03-22T23:13:49.595Z,525.00
2023-03-22T23:17:53.564Z,526.00
2023-03-22T23:21:50.696Z,526.00
2023-03-22T23:25:49.655Z,524.00
2023-03-22T23:29:49.853Z,523.00
2023-03-22T23:33:49.659Z,520.00
2023-03-22T23:37:49.687Z,522.00
2023-03-22T23:41:49.788Z,522.00
2023-03-22T23:45:49.898Z,521.00
2023-03-22T23:49:49.986Z,531.00
2023-03-22T23:53:50.135Z,529.00
2023-03-22T23:57:50.283Z,522.00
